sensor_id;sensor_type;location;lat;lon;timestamp;P1;durP1;ratioP1;P2;durP2;ratioP2
12792;SDS011;6460;42.684;23.260;2023-12-20T00:01:54;78.33;;;51.73;;
12792;SDS011;6460;42.684;23.260;2023-12-20T00:04:21;80.90;;;50.40;;
12792;SDS011;6460;42.684;23.260;2023-12-20T00:06:49;87.00;;;54.87;;
12792;SDS011;6460;42.684;23.260;2023-12-20T00:09:18;93.70;;;57.20;;
12792;SDS011;6460;42.684;23.260;2023-12-20T00:11:46;89.40;;;57.07;;
12792;SDS011;6460;42.684;23.260;2023-12-20T00:14:15;90.70;;;56.53;;
12792;SDS011;6460;42.684;23.260;2023-12-20T00:16:43;72.07;;;48.83;;
12792;SDS011;6460;42.684;23.260;2023-12-20T00:19:11;72.77;;;47.23;;
12792;SDS011;6460;42.684;23.260;2023-12-20T00:21:39;70.47;;;46.73;;
12792;SDS011;6460;42.684;23.260;2023-12-20T00:24:07;65.07;;;43.17;;
12792;SDS011;6460;42.684;23.260;2023-12-20T00:26:35;66.20;;;41.83;;
12792;SDS011;6460;42.684;23.260;2023-12-20T00:29:03;70.47;;;44.47;;
12792;SDS011;6460;42.684;23.260;2023-12-20T00:31:33;64.03;;;42.43;;
12792;SDS011;6460;42.684;23.260;2023-12-20T00:34:01;65.03;;;41.97;;
12792;SDS011;6460;42.684;23.260;2023-12-20T00:36:29;65.63;;;42.30;;
12792;SDS011;6460;42.684;23.260;2023-12-20T00:38:56;58.37;;;37.93;;
12792;SDS011;6460;42.684;23.260;2023-12-20T00:41:23;69.20;;;44.20;;
12792;SDS011;6460;42.684;23.260;2023-12-20T00:43:51;67.27;;;43.30;;
12792;SDS011;6460;42.684;23.260;2023-12-20T00:46:19;64.73;;;43.00;;
12792;SDS011;6460;42.684;23.260;2023-12-20T00:48:48;71.40;;;44.37;;
12792;SDS011;6460;42.684;23.260;2023-12-20T00:51:16;70.40;;;44.63;;
12792;SDS011;6460;42.684;23.260;2023-12-20T00:53:44;70.13;;;44.80;;
12792;SDS011;6460;42.684;23.260;2023-12-20T00:56:14;69.60;;;44.77;;
12792;SDS011;6460;42.684;23.260;2023-12-20T00:58:42;68.27;;;45.17;;
12792;SDS011;6460;42.684;23.260;2023-12-20T01:01:10;69.10;;;42.43;;
12792;SDS011;6460;42.684;23.260;2023-12-20T01:03:38;66.33;;;40.80;;
12792;SDS011;6460;42.684;23.260;2023-12-20T01:06:08;51.90;;;32.07;;
12792;SDS011;6460;42.684;23.260;2023-12-20T01:08:37;50.63;;;32.70;;
12792;SDS011;6460;42.684;23.260;2023-12-20T01:11:05;58.77;;;38.83;;
12792;SDS011;6460;42.684;23.260;2023-12-20T01:13:33;56.73;;;35.53;;
12792;SDS011;6460;42.684;23.260;2023-12-20T01:16:00;56.83;;;34.23;;
12792;SDS011;6460;42.684;23.260;2023-12-20T01:18:28;50.50;;;33.40;;
12792;SDS011;6460;42.684;23.260;2023-12-20T01:20:56;54.27;;;34.70;;
12792;SDS011;6460;42.684;23.260;2023-12-20T01:23:30;55.63;;;34.60;;
12792;SDS011;6460;42.684;23.260;2023-12-20T01:25:57;59.93;;;36.93;;
12792;SDS011;6460;42.684;23.260;2023-12-20T01:28:27;61.03;;;39.37;;
12792;SDS011;6460;42.684;23.260;2023-12-20T01:30:55;65.43;;;41.27;;
12792;SDS011;6460;42.684;23.260;2023-12-20T01:33:23;59.90;;;36.87;;
12792;SDS011;6460;42.684;23.260;2023-12-20T01:35:51;58.07;;;36.77;;
12792;SDS011;6460;42.684;23.260;2023-12-20T01:38:18;57.47;;;36.53;;
12792;SDS011;6460;42.684;23.260;2023-12-20T01:40:46;63.70;;;39.47;;
12792;SDS011;6460;42.684;23.260;2023-12-20T01:43:14;61.07;;;38.87;;
12792;SDS011;6460;42.684;23.260;2023-12-20T01:45:41;59.53;;;40.07;;
12792;SDS011;6460;42.684;23.260;2023-12-20T01:48:08;59.97;;;37.80;;
12792;SDS011;6460;42.684;23.260;2023-12-20T01:50:37;57.53;;;39.23;;
12792;SDS011;6460;42.684;23.260;2023-12-20T01:53:04;60.80;;;40.10;;
12792;SDS011;6460;42.684;23.260;2023-12-20T01:55:35;44.97;;;31.10;;
12792;SDS011;6460;42.684;23.260;2023-12-20T01:58:06;47.50;;;29.57;;
12792;SDS011;6460;42.684;23.260;2023-12-20T02:00:35;54.77;;;35.83;;
12792;SDS011;6460;42.684;23.260;2023-12-20T02:03:03;62.17;;;38.87;;
12792;SDS011;6460;42.684;23.260;2023-12-20T02:05:32;57.43;;;36.40;;
12792;SDS011;6460;42.684;23.260;2023-12-20T02:08:01;56.67;;;37.23;;
12792;SDS011;6460;42.684;23.260;2023-12-20T02:10:29;53.43;;;35.37;;
12792;SDS011;6460;42.684;23.260;2023-12-20T02:12:57;50.77;;;33.97;;
12792;SDS011;6460;42.684;23.260;2023-12-20T02:15:27;52.90;;;32.80;;
12792;SDS011;6460;42.684;23.260;2023-12-20T02:17:55;51.17;;;33.47;;
12792;SDS011;6460;42.684;23.260;2023-12-20T02:20:23;48.73;;;32.63;;
12792;SDS011;6460;42.684;23.260;2023-12-20T02:22:53;49.33;;;31.90;;
12792;SDS011;6460;42.684;23.260;2023-12-20T02:25:21;43.73;;;30.80;;
12792;SDS011;6460;42.684;23.260;2023-12-20T02:27:49;54.13;;;32.83;;
12792;SDS011;6460;42.684;23.260;2023-12-20T02:30:17;49.03;;;32.80;;
12792;SDS011;6460;42.684;23.260;2023-12-20T02:32:45;46.03;;;31.73;;
12792;SDS011;6460;42.684;23.260;2023-12-20T02:35:14;48.40;;;31.83;;
12792;SDS011;6460;42.684;23.260;2023-12-20T02:37:42;43.77;;;30.60;;
12792;SDS011;6460;42.684;23.260;2023-12-20T02:40:12;54.50;;;34.43;;
12792;SDS011;6460;42.684;23.260;2023-12-20T02:42:40;53.73;;;35.73;;
12792;SDS011;6460;42.684;23.260;2023-12-20T02:45:08;61.27;;;36.17;;
12792;SDS011;6460;42.684;23.260;2023-12-20T02:47:35;47.23;;;31.17;;
12792;SDS011;6460;42.684;23.260;2023-12-20T02:50:03;44.83;;;29.53;;
12792;SDS011;6460;42.684;23.260;2023-12-20T02:52:32;50.97;;;31.77;;
12792;SDS011;6460;42.684;23.260;2023-12-20T02:54:59;49.83;;;32.50;;
12792;SDS011;6460;42.684;23.260;2023-12-20T02:57:29;50.27;;;34.03;;
12792;SDS011;6460;42.684;23.260;2023-12-20T02:59:58;59.17;;;36.67;;
12792;SDS011;6460;42.684;23.260;2023-12-20T03:02:26;52.70;;;32.13;;
12792;SDS011;6460;42.684;23.260;2023-12-20T03:04:54;50.37;;;30.93;;
12792;SDS011;6460;42.684;23.260;2023-12-20T03:07:22;53.37;;;33.77;;
12792;SDS011;6460;42.684;23.260;2023-12-20T03:09:50;55.90;;;37.40;;
12792;SDS011;6460;42.684;23.260;2023-12-20T03:12:18;64.93;;;42.53;;
12792;SDS011;6460;42.684;23.260;2023-12-20T03:14:47;52.30;;;35.60;;
12792;SDS011;6460;42.684;23.260;2023-12-20T03:17:16;60.53;;;40.03;;
12792;SDS011;6460;42.684;23.260;2023-12-20T03:19:44;62.30;;;40.97;;
12792;SDS011;6460;42.684;23.260;2023-12-20T03:22:12;65.47;;;42.00;;
12792;SDS011;6460;42.684;23.260;2023-12-20T03:24:40;63.03;;;41.47;;
12792;SDS011;6460;42.684;23.260;2023-12-20T03:27:07;54.73;;;36.00;;
12792;SDS011;6460;42.684;23.260;2023-12-20T03:29:35;52.27;;;34.23;;
12792;SDS011;6460;42.684;23.260;2023-12-20T03:32:04;60.77;;;37.17;;
12792;SDS011;6460;42.684;23.260;2023-12-20T03:34:34;56.50;;;36.00;;
12792;SDS011;6460;42.684;23.260;2023-12-20T03:37:02;51.13;;;34.23;;
12792;SDS011;6460;42.684;23.260;2023-12-20T03:39:30;55.77;;;34.13;;
12792;SDS011;6460;42.684;23.260;2023-12-20T03:41:58;52.73;;;33.73;;
12792;SDS011;6460;42.684;23.260;2023-12-20T03:44:26;55.13;;;34.83;;
12792;SDS011;6460;42.684;23.260;2023-12-20T03:46:54;53.80;;;33.53;;
12792;SDS011;6460;42.684;23.260;2023-12-20T03:49:23;61.63;;;37.37;;
12792;SDS011;6460;42.684;23.260;2023-12-20T03:51:51;49.83;;;30.83;;
12792;SDS011;6460;42.684;23.260;2023-12-20T03:54:19;57.37;;;35.17;;
12792;SDS011;6460;42.684;23.260;2023-12-20T03:56:47;56.33;;;35.93;;
12792;SDS011;6460;42.684;23.260;2023-12-20T03:59:16;54.90;;;34.87;;
12792;SDS011;6460;42.684;23.260;2023-12-20T04:01:44;53.57;;;34.63;;
12792;SDS011;6460;42.684;23.260;2023-12-20T04:04:12;52.30;;;34.97;;
12792;SDS011;6460;42.684;23.260;2023-12-20T04:06:42;60.63;;;37.37;;
12792;SDS011;6460;42.684;23.260;2023-12-20T04:09:10;63.80;;;38.73;;
12792;SDS011;6460;42.684;23.260;2023-12-20T04:11:38;57.33;;;37.00;;
12792;SDS011;6460;42.684;23.260;2023-12-20T04:14:06;58.57;;;38.23;;
12792;SDS011;6460;42.684;23.260;2023-12-20T04:19:02;73.13;;;43.43;;
12792;SDS011;6460;42.684;23.260;2023-12-20T04:21:30;72.50;;;43.77;;
12792;SDS011;6460;42.684;23.260;2023-12-20T04:23:59;67.57;;;41.50;;
12792;SDS011;6460;42.684;23.260;2023-12-20T04:26:27;61.53;;;39.43;;
12792;SDS011;6460;42.684;23.260;2023-12-20T04:28:56;52.77;;;35.13;;
12792;SDS011;6460;42.684;23.260;2023-12-20T04:31:24;61.30;;;39.33;;
12792;SDS011;6460;42.684;23.260;2023-12-20T04:33:52;64.87;;;40.53;;
12792;SDS011;6460;42.684;23.260;2023-12-20T04:36:20;64.33;;;41.63;;
12792;SDS011;6460;42.684;23.260;2023-12-20T04:38:48;61.47;;;41.97;;
12792;SDS011;6460;42.684;23.260;2023-12-20T04:41:18;79.63;;;44.93;;
12792;SDS011;6460;42.684;23.260;2023-12-20T04:43:46;71.83;;;44.20;;
12792;SDS011;6460;42.684;23.260;2023-12-20T04:46:14;66.13;;;43.37;;
12792;SDS011;6460;42.684;23.260;2023-12-20T04:48:42;66.33;;;42.17;;
12792;SDS011;6460;42.684;23.260;2023-12-20T04:51:10;68.57;;;41.27;;
12792;SDS011;6460;42.684;23.260;2023-12-20T04:53:38;75.33;;;45.07;;
12792;SDS011;6460;42.684;23.260;2023-12-20T04:56:06;72.27;;;43.83;;
12792;SDS011;6460;42.684;23.260;2023-12-20T04:58:35;69.43;;;42.57;;
12792;SDS011;6460;42.684;23.260;2023-12-20T05:01:03;75.20;;;46.27;;
12792;SDS011;6460;42.684;23.260;2023-12-20T05:03:32;67.33;;;43.03;;
12792;SDS011;6460;42.684;23.260;2023-12-20T05:06:00;68.67;;;42.07;;
12792;SDS011;6460;42.684;23.260;2023-12-20T05:08:29;79.20;;;43.10;;
12792;SDS011;6460;42.684;23.260;2023-12-20T05:10:57;65.13;;;40.77;;
12792;SDS011;6460;42.684;23.260;2023-12-20T05:13:25;63.20;;;39.13;;
12792;SDS011;6460;42.684;23.260;2023-12-20T05:15:55;50.77;;;33.67;;
12792;SDS011;6460;42.684;23.260;2023-12-20T05:18:22;51.27;;;32.30;;
12792;SDS011;6460;42.684;23.260;2023-12-20T05:20:50;50.60;;;31.87;;
12792;SDS011;6460;42.684;23.260;2023-12-20T05:23:18;48.10;;;30.17;;
12792;SDS011;6460;42.684;23.260;2023-12-20T05:25:46;48.07;;;30.30;;
12792;SDS011;6460;42.684;23.260;2023-12-20T05:28:15;53.77;;;30.57;;
12792;SDS011;6460;42.684;23.260;2023-12-20T05:30:43;61.43;;;35.07;;
12792;SDS011;6460;42.684;23.260;2023-12-20T05:33:12;65.83;;;38.67;;
12792;SDS011;6460;42.684;23.260;2023-12-20T05:35:40;55.10;;;35.87;;
12792;SDS011;6460;42.684;23.260;2023-12-20T05:38:08;60.60;;;36.73;;
12792;SDS011;6460;42.684;23.260;2023-12-20T05:40:36;55.87;;;36.63;;
12792;SDS011;6460;42.684;23.260;2023-12-20T05:43:04;51.70;;;33.00;;
12792;SDS011;6460;42.684;23.260;2023-12-20T05:45:32;51.00;;;31.97;;
12792;SDS011;6460;42.684;23.260;2023-12-20T05:47:59;54.17;;;34.03;;
12792;SDS011;6460;42.684;23.260;2023-12-20T05:50:29;55.80;;;33.80;;
12792;SDS011;6460;42.684;23.260;2023-12-20T05:52:57;79.10;;;43.33;;
12792;SDS011;6460;42.684;23.260;2023-12-20T05:55:25;87.73;;;49.07;;
12792;SDS011;6460;42.684;23.260;2023-12-20T05:57:53;91.03;;;51.17;;
12792;SDS011;6460;42.684;23.260;2023-12-20T06:00:20;83.80;;;50.17;;
12792;SDS011;6460;42.684;23.260;2023-12-20T06:02:48;81.87;;;49.27;;
12792;SDS011;6460;42.684;23.260;2023-12-20T06:05:16;82.23;;;47.20;;
12792;SDS011;6460;42.684;23.260;2023-12-20T06:07:46;82.23;;;48.37;;
12792;SDS011;6460;42.684;23.260;2023-12-20T06:10:15;94.70;;;51.67;;
12792;SDS011;6460;42.684;23.260;2023-12-20T06:12:43;89.17;;;49.47;;
12792;SDS011;6460;42.684;23.260;2023-12-20T06:15:12;91.77;;;47.37;;
12792;SDS011;6460;42.684;23.260;2023-12-20T06:17:40;87.57;;;44.07;;
12792;SDS011;6460;42.684;23.260;2023-12-20T06:20:08;83.87;;;42.67;;
12792;SDS011;6460;42.684;23.260;2023-12-20T06:22:37;94.03;;;46.83;;
12792;SDS011;6460;42.684;23.260;2023-12-20T06:25:07;79.73;;;43.77;;
12792;SDS011;6460;42.684;23.260;2023-12-20T06:27:35;97.43;;;48.10;;
12792;SDS011;6460;42.684;23.260;2023-12-20T06:30:03;131.80;;;54.57;;
12792;SDS011;6460;42.684;23.260;2023-12-20T06:32:32;128.97;;;58.53;;
12792;SDS011;6460;42.684;23.260;2023-12-20T06:35:00;140.83;;;59.67;;
12792;SDS011;6460;42.684;23.260;2023-12-20T06:37:30;140.00;;;58.67;;
12792;SDS011;6460;42.684;23.260;2023-12-20T06:39:58;126.80;;;53.10;;
12792;SDS011;6460;42.684;23.260;2023-12-20T06:42:28;81.27;;;39.27;;
12792;SDS011;6460;42.684;23.260;2023-12-20T06:44:55;107.67;;;42.33;;
12792;SDS011;6460;42.684;23.260;2023-12-20T06:47:22;89.37;;;39.40;;
12792;SDS011;6460;42.684;23.260;2023-12-20T06:49:50;71.37;;;32.47;;
12792;SDS011;6460;42.684;23.260;2023-12-20T06:52:17;64.67;;;31.57;;
12792;SDS011;6460;42.684;23.260;2023-12-20T06:54:44;58.77;;;29.83;;
12792;SDS011;6460;42.684;23.260;2023-12-20T06:57:12;53.00;;;28.13;;
12792;SDS011;6460;42.684;23.260;2023-12-20T06:59:41;51.27;;;26.17;;
12792;SDS011;6460;42.684;23.260;2023-12-20T07:02:09;58.00;;;29.67;;
12792;SDS011;6460;42.684;23.260;2023-12-20T07:04:38;65.40;;;37.73;;
12792;SDS011;6460;42.684;23.260;2023-12-20T07:07:06;65.30;;;32.53;;
12792;SDS011;6460;42.684;23.260;2023-12-20T07:09:33;64.17;;;32.27;;
12792;SDS011;6460;42.684;23.260;2023-12-20T07:12:00;73.93;;;33.23;;
12792;SDS011;6460;42.684;23.260;2023-12-20T07:14:28;68.50;;;35.93;;
12792;SDS011;6460;42.684;23.260;2023-12-20T07:16:57;73.33;;;37.33;;
12792;SDS011;6460;42.684;23.260;2023-12-20T07:19:25;91.20;;;39.03;;
12792;SDS011;6460;42.684;23.260;2023-12-20T07:21:52;73.67;;;36.40;;
12792;SDS011;6460;42.684;23.260;2023-12-20T07:24:20;67.77;;;36.77;;
12792;SDS011;6460;42.684;23.260;2023-12-20T07:26:48;79.73;;;37.47;;
12792;SDS011;6460;42.684;23.260;2023-12-20T07:29:17;69.23;;;37.07;;
12792;SDS011;6460;42.684;23.260;2023-12-20T07:31:45;65.80;;;35.03;;
12792;SDS011;6460;42.684;23.260;2023-12-20T07:34:15;73.23;;;36.20;;
12792;SDS011;6460;42.684;23.260;2023-12-20T07:36:42;74.87;;;38.23;;
12792;SDS011;6460;42.684;23.260;2023-12-20T07:39:10;71.00;;;36.83;;
12792;SDS011;6460;42.684;23.260;2023-12-20T07:41:38;67.07;;;36.07;;
12792;SDS011;6460;42.684;23.260;2023-12-20T07:44:06;69.43;;;38.23;;
12792;SDS011;6460;42.684;23.260;2023-12-20T07:46:35;74.30;;;38.03;;
12792;SDS011;6460;42.684;23.260;2023-12-20T07:49:03;61.00;;;36.87;;
12792;SDS011;6460;42.684;23.260;2023-12-20T07:51:33;63.07;;;35.60;;
12792;SDS011;6460;42.684;23.260;2023-12-20T07:54:01;71.77;;;41.83;;
12792;SDS011;6460;42.684;23.260;2023-12-20T07:56:30;93.30;;;51.27;;
12792;SDS011;6460;42.684;23.260;2023-12-20T07:58:58;106.70;;;56.53;;
12792;SDS011;6460;42.684;23.260;2023-12-20T08:01:26;108.17;;;54.13;;
12792;SDS011;6460;42.684;23.260;2023-12-20T08:03:54;122.90;;;57.87;;
12792;SDS011;6460;42.684;23.260;2023-12-20T08:06:22;117.00;;;58.73;;
12792;SDS011;6460;42.684;23.260;2023-12-20T08:08:52;121.63;;;65.13;;
12792;SDS011;6460;42.684;23.260;2023-12-20T08:11:20;129.10;;;66.77;;
12792;SDS011;6460;42.684;23.260;2023-12-20T08:13:48;128.03;;;66.00;;
12792;SDS011;6460;42.684;23.260;2023-12-20T08:16:16;150.23;;;78.73;;
12792;SDS011;6460;42.684;23.260;2023-12-20T08:18:44;132.03;;;71.13;;
12792;SDS011;6460;42.684;23.260;2023-12-20T08:21:12;143.03;;;69.93;;
12792;SDS011;6460;42.684;23.260;2023-12-20T08:23:40;153.27;;;76.67;;
12792;SDS011;6460;42.684;23.260;2023-12-20T08:26:10;159.87;;;79.67;;
12792;SDS011;6460;42.684;23.260;2023-12-20T08:28:38;136.80;;;70.43;;
12792;SDS011;6460;42.684;23.260;2023-12-20T08:31:06;147.10;;;74.83;;
12792;SDS011;6460;42.684;23.260;2023-12-20T08:33:40;142.80;;;77.07;;
12792;SDS011;6460;42.684;23.260;2023-12-20T08:36:08;140.47;;;74.37;;
12792;SDS011;6460;42.684;23.260;2023-12-20T08:38:36;135.93;;;72.03;;
12792;SDS011;6460;42.684;23.260;2023-12-20T08:41:04;142.57;;;74.00;;
12792;SDS011;6460;42.684;23.260;2023-12-20T08:43:34;155.37;;;79.40;;
12792;SDS011;6460;42.684;23.260;2023-12-20T08:46:02;146.43;;;78.00;;
12792;SDS011;6460;42.684;23.260;2023-12-20T08:48:30;151.30;;;77.93;;
12792;SDS011;6460;42.684;23.260;2023-12-20T08:50:58;153.07;;;83.53;;
12792;SDS011;6460;42.684;23.260;2023-12-20T08:53:25;158.77;;;85.90;;
12792;SDS011;6460;42.684;23.260;2023-12-20T08:55:53;169.37;;;88.87;;
12792;SDS011;6460;42.684;23.260;2023-12-20T08:58:21;155.80;;;84.93;;
12792;SDS011;6460;42.684;23.260;2023-12-20T09:00:50;159.20;;;86.33;;
12792;SDS011;6460;42.684;23.260;2023-12-20T09:03:18;163.47;;;88.57;;
12792;SDS011;6460;42.684;23.260;2023-12-20T09:05:46;152.43;;;86.43;;
12792;SDS011;6460;42.684;23.260;2023-12-20T09:08:14;155.57;;;84.00;;
12792;SDS011;6460;42.684;23.260;2023-12-20T09:10:41;150.93;;;83.43;;
12792;SDS011;6460;42.684;23.260;2023-12-20T09:13:10;140.53;;;77.43;;
12792;SDS011;6460;42.684;23.260;2023-12-20T09:15:37;148.67;;;77.03;;
12792;SDS011;6460;42.684;23.260;2023-12-20T09:18:07;139.50;;;73.97;;
12792;SDS011;6460;42.684;23.260;2023-12-20T09:20:35;141.57;;;73.10;;
12792;SDS011;6460;42.684;23.260;2023-12-20T09:23:03;120.60;;;67.53;;
12792;SDS011;6460;42.684;23.260;2023-12-20T09:25:31;125.43;;;67.30;;
12792;SDS011;6460;42.684;23.260;2023-12-20T09:27:59;120.60;;;65.53;;
12792;SDS011;6460;42.684;23.260;2023-12-20T09:30:27;127.20;;;65.27;;
12792;SDS011;6460;42.684;23.260;2023-12-20T09:32:55;118.80;;;64.23;;
12792;SDS011;6460;42.684;23.260;2023-12-20T09:35:24;113.97;;;61.53;;
12792;SDS011;6460;42.684;23.260;2023-12-20T09:37:52;115.63;;;63.23;;
12792;SDS011;6460;42.684;23.260;2023-12-20T09:40:20;118.80;;;63.23;;
12792;SDS011;6460;42.684;23.260;2023-12-20T09:42:51;119.27;;;64.53;;
12792;SDS011;6460;42.684;23.260;2023-12-20T09:45:24;119.53;;;63.93;;
12792;SDS011;6460;42.684;23.260;2023-12-20T09:47:52;137.20;;;66.83;;
12792;SDS011;6460;42.684;23.260;2023-12-20T09:50:21;126.10;;;67.40;;
12792;SDS011;6460;42.684;23.260;2023-12-20T09:52:51;129.43;;;65.93;;
12792;SDS011;6460;42.684;23.260;2023-12-20T09:55:21;124.43;;;67.50;;
12792;SDS011;6460;42.684;23.260;2023-12-20T09:57:49;130.83;;;70.83;;
12792;SDS011;6460;42.684;23.260;2023-12-20T10:00:17;130.73;;;67.50;;
12792;SDS011;6460;42.684;23.260;2023-12-20T10:02:47;143.90;;;71.93;;
12792;SDS011;6460;42.684;23.260;2023-12-20T10:05:19;142.47;;;76.47;;
12792;SDS011;6460;42.684;23.260;2023-12-20T10:07:55;149.53;;;86.13;;
12792;SDS011;6460;42.684;23.260;2023-12-20T10:10:24;158.73;;;89.60;;
12792;SDS011;6460;42.684;23.260;2023-12-20T10:13:02;165.13;;;95.83;;
12792;SDS011;6460;42.684;23.260;2023-12-20T10:15:32;169.60;;;97.43;;
12792;SDS011;6460;42.684;23.260;2023-12-20T10:18:00;161.30;;;96.97;;
12792;SDS011;6460;42.684;23.260;2023-12-20T10:20:27;176.03;;;100.73;;
12792;SDS011;6460;42.684;23.260;2023-12-20T10:22:57;170.43;;;97.83;;
12792;SDS011;6460;42.684;23.260;2023-12-20T10:25:25;168.40;;;99.20;;
12792;SDS011;6460;42.684;23.260;2023-12-20T10:28:08;174.33;;;101.53;;
12792;SDS011;6460;42.684;23.260;2023-12-20T10:30:37;164.87;;;98.30;;
12792;SDS011;6460;42.684;23.260;2023-12-20T10:33:05;194.40;;;107.00;;
12792;SDS011;6460;42.684;23.260;2023-12-20T10:35:33;162.93;;;91.00;;
12792;SDS011;6460;42.684;23.260;2023-12-20T10:38:04;149.03;;;86.87;;
12792;SDS011;6460;42.684;23.260;2023-12-20T10:40:34;150.67;;;84.47;;
12792;SDS011;6460;42.684;23.260;2023-12-20T10:43:03;169.00;;;94.53;;
12792;SDS011;6460;42.684;23.260;2023-12-20T10:45:31;158.50;;;91.37;;
12792;SDS011;6460;42.684;23.260;2023-12-20T10:47:59;153.13;;;88.23;;
12792;SDS011;6460;42.684;23.260;2023-12-20T10:50:29;154.60;;;89.67;;
12792;SDS011;6460;42.684;23.260;2023-12-20T10:52:57;148.87;;;89.23;;
12792;SDS011;6460;42.684;23.260;2023-12-20T10:55:26;154.33;;;91.47;;
12792;SDS011;6460;42.684;23.260;2023-12-20T10:57:54;146.50;;;89.67;;
12792;SDS011;6460;42.684;23.260;2023-12-20T11:00:28;159.33;;;90.93;;
12792;SDS011;6460;42.684;23.260;2023-12-20T11:02:57;135.77;;;85.60;;
12792;SDS011;6460;42.684;23.260;2023-12-20T11:05:32;135.43;;;80.80;;
12792;SDS011;6460;42.684;23.260;2023-12-20T11:08:09;134.47;;;78.93;;
12792;SDS011;6460;42.684;23.260;2023-12-20T11:10:46;137.43;;;78.43;;
12792;SDS011;6460;42.684;23.260;2023-12-20T11:13:20;130.03;;;73.03;;
12792;SDS011;6460;42.684;23.260;2023-12-20T11:15:50;128.77;;;74.50;;
12792;SDS011;6460;42.684;23.260;2023-12-20T11:18:18;124.40;;;76.67;;
12792;SDS011;6460;42.684;23.260;2023-12-20T11:20:45;126.23;;;73.77;;
12792;SDS011;6460;42.684;23.260;2023-12-20T11:23:13;119.00;;;69.53;;
12792;SDS011;6460;42.684;23.260;2023-12-20T11:25:51;118.27;;;63.40;;
12792;SDS011;6460;42.684;23.260;2023-12-20T11:28:21;132.13;;;74.17;;
12792;SDS011;6460;42.684;23.260;2023-12-20T11:30:51;197.93;;;120.57;;
12792;SDS011;6460;42.684;23.260;2023-12-20T11:33:23;109.97;;;67.40;;
12792;SDS011;6460;42.684;23.260;2023-12-20T11:35:51;111.20;;;63.40;;
12792;SDS011;6460;42.684;23.260;2023-12-20T11:38:22;112.63;;;64.47;;
12792;SDS011;6460;42.684;23.260;2023-12-20T11:40:53;120.53;;;67.93;;
12792;SDS011;6460;42.684;23.260;2023-12-20T11:43:30;126.40;;;70.83;;
12792;SDS011;6460;42.684;23.260;2023-12-20T11:46:03;126.60;;;72.97;;
12792;SDS011;6460;42.684;23.260;2023-12-20T11:48:32;130.03;;;75.03;;
12792;SDS011;6460;42.684;23.260;2023-12-20T11:51:01;126.30;;;76.73;;
12792;SDS011;6460;42.684;23.260;2023-12-20T11:53:30;134.00;;;80.17;;
12792;SDS011;6460;42.684;23.260;2023-12-20T11:56:00;128.13;;;77.37;;
12792;SDS011;6460;42.684;23.260;2023-12-20T11:58:28;125.10;;;74.97;;
12792;SDS011;6460;42.684;23.260;2023-12-20T12:00:56;123.07;;;76.27;;
12792;SDS011;6460;42.684;23.260;2023-12-20T12:03:24;126.47;;;73.33;;
12792;SDS011;6460;42.684;23.260;2023-12-20T12:05:52;126.27;;;75.50;;
12792;SDS011;6460;42.684;23.260;2023-12-20T12:08:20;123.70;;;75.07;;
12792;SDS011;6460;42.684;23.260;2023-12-20T12:10:49;126.33;;;76.97;;
12792;SDS011;6460;42.684;23.260;2023-12-20T12:13:17;127.37;;;78.90;;
12792;SDS011;6460;42.684;23.260;2023-12-20T12:15:45;135.83;;;81.17;;
12792;SDS011;6460;42.684;23.260;2023-12-20T12:18:15;138.13;;;82.37;;
12792;SDS011;6460;42.684;23.260;2023-12-20T12:20:43;138.30;;;80.67;;
12792;SDS011;6460;42.684;23.260;2023-12-20T12:23:11;134.03;;;78.03;;
12792;SDS011;6460;42.684;23.260;2023-12-20T12:25:38;132.30;;;81.00;;
12792;SDS011;6460;42.684;23.260;2023-12-20T12:28:05;136.47;;;83.43;;
12792;SDS011;6460;42.684;23.260;2023-12-20T12:30:34;136.60;;;81.00;;
12792;SDS011;6460;42.684;23.260;2023-12-20T12:33:02;138.70;;;80.40;;
12792;SDS011;6460;42.684;23.260;2023-12-20T12:35:30;143.17;;;79.30;;
12792;SDS011;6460;42.684;23.260;2023-12-20T12:37:58;132.73;;;77.13;;
12792;SDS011;6460;42.684;23.260;2023-12-20T12:40:28;137.47;;;78.30;;
12792;SDS011;6460;42.684;23.260;2023-12-20T12:42:55;131.33;;;76.17;;
12792;SDS011;6460;42.684;23.260;2023-12-20T12:45:22;125.57;;;76.03;;
12792;SDS011;6460;42.684;23.260;2023-12-20T12:47:51;133.40;;;76.03;;
12792;SDS011;6460;42.684;23.260;2023-12-20T12:50:20;121.47;;;71.47;;
12792;SDS011;6460;42.684;23.260;2023-12-20T12:52:48;124.10;;;71.37;;
12792;SDS011;6460;42.684;23.260;2023-12-20T12:55:15;122.73;;;69.40;;
12792;SDS011;6460;42.684;23.260;2023-12-20T12:57:43;121.73;;;67.07;;
12792;SDS011;6460;42.684;23.260;2023-12-20T13:00:11;117.47;;;67.27;;
12792;SDS011;6460;42.684;23.260;2023-12-20T13:02:39;120.53;;;69.33;;
12792;SDS011;6460;42.684;23.260;2023-12-20T13:05:09;130.80;;;77.60;;
12792;SDS011;6460;42.684;23.260;2023-12-20T13:07:36;127.47;;;79.03;;
12792;SDS011;6460;42.684;23.260;2023-12-20T13:10:05;112.73;;;67.30;;
12792;SDS011;6460;42.684;23.260;2023-12-20T13:12:32;206.30;;;130.83;;
12792;SDS011;6460;42.684;23.260;2023-12-20T13:15:03;118.03;;;66.80;;
12792;SDS011;6460;42.684;23.260;2023-12-20T13:17:31;122.10;;;63.77;;
12792;SDS011;6460;42.684;23.260;2023-12-20T13:19:58;108.20;;;61.13;;
12792;SDS011;6460;42.684;23.260;2023-12-20T13:22:27;111.87;;;59.77;;
12792;SDS011;6460;42.684;23.260;2023-12-20T13:24:55;112.07;;;61.90;;
12792;SDS011;6460;42.684;23.260;2023-12-20T13:27:22;121.13;;;61.70;;
12792;SDS011;6460;42.684;23.260;2023-12-20T13:29:49;111.87;;;60.13;;
12792;SDS011;6460;42.684;23.260;2023-12-20T13:32:17;114.23;;;61.30;;
12792;SDS011;6460;42.684;23.260;2023-12-20T13:34:45;111.80;;;59.37;;
12792;SDS011;6460;42.684;23.260;2023-12-20T13:37:13;108.43;;;61.17;;
12792;SDS011;6460;42.684;23.260;2023-12-20T13:39:41;138.03;;;81.63;;
12792;SDS011;6460;42.684;23.260;2023-12-20T13:42:08;174.27;;;102.33;;
12792;SDS011;6460;42.684;23.260;2023-12-20T13:44:36;152.67;;;89.63;;
12792;SDS011;6460;42.684;23.260;2023-12-20T13:47:03;156.30;;;90.83;;
12792;SDS011;6460;42.684;23.260;2023-12-20T13:49:31;149.50;;;85.37;;
12792;SDS011;6460;42.684;23.260;2023-12-20T13:51:59;151.33;;;85.60;;
12792;SDS011;6460;42.684;23.260;2023-12-20T13:54:26;148.00;;;83.40;;
12792;SDS011;6460;42.684;23.260;2023-12-20T13:56:55;147.50;;;81.47;;
12792;SDS011;6460;42.684;23.260;2023-12-20T13:59:23;140.00;;;77.00;;
12792;SDS011;6460;42.684;23.260;2023-12-20T14:01:51;143.50;;;77.73;;
12792;SDS011;6460;42.684;23.260;2023-12-20T14:04:18;147.57;;;77.17;;
12792;SDS011;6460;42.684;23.260;2023-12-20T14:06:47;135.33;;;71.50;;
12792;SDS011;6460;42.684;23.260;2023-12-20T14:09:14;143.63;;;76.07;;
12792;SDS011;6460;42.684;23.260;2023-12-20T14:11:41;162.13;;;83.97;;
12792;SDS011;6460;42.684;23.260;2023-12-20T14:14:10;169.53;;;83.70;;
12792;SDS011;6460;42.684;23.260;2023-12-20T14:16:37;169.43;;;85.27;;
12792;SDS011;6460;42.684;23.260;2023-12-20T14:19:04;153.03;;;82.33;;
12792;SDS011;6460;42.684;23.260;2023-12-20T14:21:33;169.17;;;85.77;;
12792;SDS011;6460;42.684;23.260;2023-12-20T14:24:00;164.57;;;84.93;;
12792;SDS011;6460;42.684;23.260;2023-12-20T14:26:29;175.57;;;89.43;;